Terminal Aerodrome Forecast
Issued by NWS St Louis, MO

Home | Current Version | Previous Version | Text Only | Print | Product List | Glossary On
Versions: 1 2 3 4 5 6 7 8 9 10 11 12 13 14 15 16 17 18 19 20 21 22 23 24 25 26 27 28 29 30 31 32
139
FTUS43 KLSX 252059 AAC
TAFCOU
TAF AMD
KCOU 252059Z 2521/2618 09005KT 4SM -SHRA VCTS SCT025 OVC035CB
      TEMPO 2521/2523 BKN025CB
     FM252300 19004KT P6SM -SHRA VCTS OVC040CB
     FM260000 22004KT P6SM VCSH OVC045
     FM260500 27006KT P6SM VCSH OVC015
     FM260800 26006KT P6SM OVC007=

USA.gov is the U.S. government's official web portal to all federal, state and local government web resources and services.